Greensboro, NC

1:55 AM EST on February 01, 2015 (GMT -0500)
APRSWXNET Greensboro NC US | Change Station
CLOSE
Current Station
Personal Weather Station
Location: Greensboro, NC
Elevation: 813 ft
Nearby Weather Stations

Elev 813 ft 36.14 °N, 79.85 °W | Updated 2 hours ago

Mostly Cloudy
Mostly Cloudy
30.0 °F
Feels Like 30.0 °F
N
0.0
Wind Variable Wind from NW
Gusts 0.0 mph

Today
High -- | Low -- °F
--% Chance of Precip.
Yesterday
High -- | Low -- °F
Precip. -- in
7:20 AM 5:45 PM
Waxing Gibbous, 93% visible
Pressure 30.24 in
Visibility 10.0 miles
Clouds Mostly Cloudy 15000 ft
Dew Point 19.0 °F
Humidity 63%
Rainfall 0.00 in
Snow Depth Not available.
UV 0 out of 12
Pollen 3.00 out of 12
Air Quality Not available.
Flu Activity Not available.
METAR KGSO 010554Z 22005KT 10SM BKN150 03/M10 A3023 RMK AO2 SLP240 T00281100 10061 20022 58007

More Conditions Fewer Conditions

Pressure 30.24 in
Visibility 10.0 miles
Clouds Mostly Cloudy 15000 ft
Dew Point 19.0 °F
Humidity 63%
Rainfall 0.00 in
Snow Depth Not available.
UV 0 out of 12
Pollen 3.00 out of 12
Air Quality Not available.
Flu Activity Not available.
METAR KGSO 010554Z 22005KT 10SM BKN150 03/M10 A3023 RMK AO2 SLP240 T00281100 10061 20022 58007

More Conditions Fewer Conditions

10-Day Weather Forecast

Almanac

Astronomy

Feb. 01, 2015 Rise Set
Actual Time
Civil Twilight
Nautical Twilight
Astronomical Twilight
Moon
Length of Visible Light
Length of Day
Tomorrow will be .
, % of the Moon is Illuminated

Today's Extremes

State Highs State Lows

Community

WunderPhotos

Upload Photos

1,792,324 photos uploaded!

WunderBlogs® & News

Nearby

Air Quality

  Air Quality AQ Index Pollutant
Not available.

Snow Depth

Station Depth Elevation

Earthquake Activity

City Distance Mag. Time & Date
Minimum magnitude displayed is 2.5.

Coastal Water Temperatures

Place Temperature

Nearby Weather Stations